Time;durP1;ratioP1;P1;durP2;ratioP2;P2;SDS_P1;SDS_P2;PMS_P1;PMS_P2;Temp;Humidity;BMP_temperature;BMP_pressure;BME280_temperature;BME280_humidity;BME280_pressure;Samples;Min_cycle;Max_cycle;Signal;HPM_P1;HPM_P2
2023/09/01 00:01:40;;;;;;;5.43;3.33;;;;;;;16.79;100.00;100017.13;4969293;28;20305;-76
2023/09/01 00:04:05;;;;;;;5.20;3.20;;;;;;;16.79;100.00;100011.91;4963176;28;20231;-76
2023/09/01 00:06:31;;;;;;;4.00;2.97;;;;;;;16.79;100.00;100017.13;4962099;28;20227;-76
2023/09/01 00:08:56;;;;;;;3.60;3.10;;;;;;;16.80;100.00;100024.06;4969119;28;20218;-76
2023/09/01 00:11:21;;;;;;;2.63;2.43;;;;;;;16.80;100.00;100024.91;4971397;28;20193;-76
2023/09/01 00:13:47;;;;;;;3.10;2.80;;;;;;;16.81;100.00;100033.63;4968781;28;20252;-75
2023/09/01 00:16:13;;;;;;;3.10;2.80;;;;;;;16.81;100.00;100033.63;4972556;28;20190;-76
2023/09/01 00:18:38;;;;;;;3.53;3.07;;;;;;;16.79;100.00;100033.66;4967344;28;20191;-76
2023/09/01 00:21:04;;;;;;;3.40;2.90;;;;;;;16.79;100.00;100033.66;4969170;28;20186;-76
2023/09/01 00:23:30;;;;;;;3.50;3.03;;;;;;;16.81;100.00;100028.38;4961694;28;20327;-77
2023/09/01 00:25:56;;;;;;;3.33;3.03;;;;;;;16.81;100.00;100033.63;4981009;28;20197;-77
2023/09/01 00:28:22;;;;;;;3.47;3.10;;;;;;;16.80;100.00;100034.53;4970381;28;20742;-75
2023/09/01 00:30:56;;;;;;;4.50;3.20;;;;;;;16.76;100.00;100029.41;4976258;28;20189;-76
2023/09/01 00:33:24;;;;;;;5.17;3.30;;;;;;;16.74;100.00;100025.16;4971257;28;20195;-76
2023/09/01 00:35:51;;;;;;;5.03;3.63;;;;;;;16.70;100.00;100024.44;4972886;28;20195;-76
2023/09/01 00:38:16;;;;;;;4.00;3.60;;;;;;;16.67;100.00;100019.34;4966163;28;20185;-76
2023/09/01 00:40:42;;;;;;;4.73;3.37;;;;;;;16.63;100.00;100016.91;4972088;28;20559;-77
2023/09/01 00:43:07;;;;;;;4.07;3.07;;;;;;;16.57;100.00;100008.38;4967013;28;20282;-77
2023/09/01 00:45:35;;;;;;;3.70;3.20;;;;;;;16.55;100.00;100011.97;4973389;28;20189;-76
2023/09/01 00:48:01;;;;;;;3.57;2.53;;;;;;;16.55;100.00;100014.59;4960625;28;20285;-76
2023/09/01 00:50:27;;;;;;;5.10;3.27;;;;;;;16.55;100.00;100010.19;4969876;28;20572;-75
2023/09/01 00:52:53;;;;;;;4.90;3.10;;;;;;;16.55;100.00;100006.75;4981026;28;20193;-76
2023/09/01 00:55:18;;;;;;;3.10;2.50;;;;;;;16.54;100.00;100018.09;4964765;28;20188;-76
2023/09/01 00:57:44;;;;;;;3.53;2.80;;;;;;;16.52;100.00;100015.53;4971977;28;20194;-76
2023/09/01 01:00:10;;;;;;;3.90;2.47;;;;;;;16.51;100.00;100015.59;4969695;28;20229;-77
2023/09/01 01:02:36;;;;;;;3.83;2.73;;;;;;;16.52;100.00;100007.69;4973245;28;20206;-77
2023/09/01 01:05:13;;;;;;;3.63;3.03;;;;;;;16.54;100.00;100012.88;4973718;28;20191;-76
2023/09/01 01:07:46;;;;;;;3.10;2.73;;;;;;;16.54;100.00;100008.50;4965140;28;20244;-76
2023/09/01 01:10:19;;;;;;;4.63;2.67;;;;;;;16.53;100.00;99996.34;4973425;28;20225;-76
2023/09/01 01:13:08;;;;;;;3.07;2.77;;;;;;;16.53;100.00;100000.72;4967449;28;20183;-77
2023/09/01 01:15:35;;;;;;;3.63;2.77;;;;;;;16.53;100.00;100000.72;4971718;28;20183;-76
2023/09/01 01:18:04;;;;;;;4.63;2.77;;;;;;;16.54;100.00;99999.81;4980705;28;20185;-76
2023/09/01 01:20:42;;;;;;;3.10;2.80;;;;;;;16.55;100.00;100001.53;4971031;28;20218;-78
2023/09/01 01:23:11;;;;;;;5.40;2.97;;;;;;;16.54;100.00;100002.44;4968572;28;20206;-78
2023/09/01 01:25:44;;;;;;;3.10;2.60;;;;;;;16.54;100.00;100005.03;4974934;28;20732;-75
2023/09/01 01:28:09;;;;;;;2.80;2.50;;;;;;;16.53;100.00;100004.16;4973368;28;20725;-76
2023/09/01 01:30:37;;;;;;;2.57;2.37;;;;;;;16.55;100.00;100001.53;4974491;28;20215;-76
2023/09/01 01:33:03;;;;;;;3.90;3.07;;;;;;;16.56;100.00;99998.84;4970176;28;20194;-75
2023/09/01 01:35:44;;;;;;;3.30;2.50;;;;;;;16.54;100.00;99997.19;4976368;28;20260;-76
2023/09/01 01:38:25;;;;;;;3.10;2.50;;;;;;;16.53;100.00;100001.56;4969574;28;20199;-76
2023/09/01 01:40:54;;;;;;;4.00;2.20;;;;;;;16.52;100.00;99999.03;4970939;28;20182;-77
2023/09/01 01:43:25;;;;;;;3.13;2.30;;;;;;;16.54;100.00;100007.66;4965158;28;20191;-77
2023/09/01 01:45:50;;;;;;;3.43;2.43;;;;;;;16.54;100.00;100010.25;4967681;28;20749;-76
2023/09/01 01:48:16;;;;;;;5.43;2.50;;;;;;;16.57;100.00;100007.50;4968057;28;20213;-76
2023/09/01 01:50:41;;;;;;;2.77;2.57;;;;;;;16.58;100.00;100009.22;4967942;28;20210;-76
2023/09/01 01:53:07;;;;;;;3.53;2.50;;;;;;;16.58;100.00;100001.38;4971455;28;20194;-76
2023/09/01 01:55:33;;;;;;;5.60;3.30;;;;;;;16.60;100.00;100007.41;4969287;28;20197;-77
2023/09/01 01:57:58;;;;;;;2.47;2.27;;;;;;;16.59;100.00;100008.31;4971232;28;20336;-76
2023/09/01 02:00:27;;;;;;;3.43;2.90;;;;;;;16.63;100.00;100009.06;4963197;28;20228;-77
2023/09/01 02:02:53;;;;;;;2.90;2.70;;;;;;;16.63;100.00;100011.69;4971222;28;20277;-76
2023/09/01 02:05:19;;;;;;;3.33;2.23;;;;;;;16.64;100.00;100001.16;4972466;28;20388;-77
2023/09/01 02:07:44;;;;;;;3.47;2.33;;;;;;;16.65;100.00;100002.84;4970153;28;20713;-76
2023/09/01 02:10:10;;;;;;;2.30;2.10;;;;;;;16.65;100.00;100010.69;4969762;28;20202;-76
2023/09/01 02:12:35;;;;;;;3.70;2.40;;;;;;;16.66;100.00;100011.53;4963983;28;20194;-77
2023/09/01 02:15:01;;;;;;;3.60;2.40;;;;;;;16.65;100.00;100012.44;4970313;28;20602;-77
2023/09/01 02:17:27;;;;;;;2.90;2.37;;;;;;;16.66;100.00;100015.00;4968264;28;20195;-76
2023/09/01 02:19:55;;;;;;;2.57;2.30;;;;;;;16.65;100.00;100010.69;4970838;28;20210;-76
2023/09/01 02:22:21;;;;;;;3.30;2.60;;;;;;;16.66;100.00;100011.53;4969060;28;20669;-77
2023/09/01 02:24:46;;;;;;;3.33;2.80;;;;;;;16.67;100.00;100013.22;4973376;28;20251;-75
2023/09/01 02:27:11;;;;;;;3.90;2.87;;;;;;;16.66;100.00;100014.13;4974550;28;20190;-77
2023/09/01 02:29:37;;;;;;;3.87;3.00;;;;;;;16.65;100.00;100013.31;4965307;28;20243;-76
2023/09/01 02:32:05;;;;;;;3.10;2.50;;;;;;;16.63;100.00;100012.50;4970420;28;20651;-77
2023/09/01 02:34:31;;;;;;;3.97;2.90;;;;;;;16.63;100.00;100007.28;4973103;28;20189;-76
2023/09/01 02:36:56;;;;;;;2.83;2.63;;;;;;;16.61;100.00;100004.75;4976352;28;20190;-76
2023/09/01 02:39:21;;;;;;;2.63;2.40;;;;;;;16.63;100.00;100003.84;4975690;28;20205;-77
2023/09/01 02:41:47;;;;;;;2.67;2.47;;;;;;;16.63;100.00;100009.91;4977420;28;20662;-76
2023/09/01 02:44:12;;;;;;;3.07;2.47;;;;;;;16.65;100.00;100015.06;4962091;28;20195;-75
2023/09/01 02:46:37;;;;;;;2.47;2.10;;;;;;;16.65;100.00;100008.09;4969860;28;20237;-75
2023/09/01 02:49:03;;;;;;;2.60;2.40;;;;;;;16.68;100.00;100015.81;4972876;28;20725;-76
2023/09/01 02:51:28;;;;;;;3.17;2.47;;;;;;;16.71;100.00;100014.81;4970628;28;20269;-75
2023/09/01 02:53:54;;;;;;;4.67;2.57;;;;;;;16.73;100.00;100015.63;4967580;28;20196;-79
2023/09/01 02:56:20;;;;;;;3.90;2.70;;;;;;;16.75;100.00;100009.41;4965657;28;20618;-76
2023/09/01 02:58:45;;;;;;;3.13;2.83;;;;;;;16.76;100.00;100007.66;4966550;28;20665;-76
2023/09/01 03:01:11;;;;;;;3.87;2.50;;;;;;;16.76;100.00;100018.97;4965445;28;20182;-76
2023/09/01 03:03:41;;;;;;;3.27;2.47;;;;;;;16.77;100.00;100012.00;4970881;28;20602;-76
2023/09/01 03:06:08;;;;;;;2.30;2.10;;;;;;;16.78;100.00;100008.47;4970529;28;20241;-76
2023/09/01 03:08:34;;;;;;;2.50;2.30;;;;;;;16.80;100.00;100018.84;4973276;28;20198;-76
2023/09/01 03:11:00;;;;;;;3.63;3.13;;;;;;;16.83;100.00;100018.72;4975297;28;20794;-77
2023/09/01 03:13:25;;;;;;;3.23;2.33;;;;;;;16.81;100.00;100013.53;4968026;28;20287;-79
2023/09/01 03:15:53;;;;;;;3.93;2.40;;;;;;;16.81;100.00;100013.53;4962653;28;20185;-77
2023/09/01 03:18:19;;;;;;;2.63;2.43;;;;;;;16.82;100.00;100011.81;4962713;28;20187;-76
2023/09/01 03:20:44;;;;;;;2.20;2.00;;;;;;;16.83;100.00;100011.72;4981351;28;20264;-76
2023/09/01 03:23:09;;;;;;;2.80;2.50;;;;;;;16.85;100.00;100015.13;4969540;28;20902;-76
2023/09/01 03:25:35;;;;;;;4.43;2.47;;;;;;;16.86;100.00;100024.69;4965381;28;20280;-76
2023/09/01 03:28:00;;;;;;;3.00;2.40;;;;;;;16.87;100.00;100018.53;4968330;28;20307;-76
2023/09/01 03:30:25;;;;;;;4.63;2.53;;;;;;;16.88;100.00;100016.75;4965033;28;20224;-77
2023/09/01 03:32:52;;;;;;;3.60;2.37;;;;;;;16.89;100.00;100010.63;4965500;28;20611;-76
2023/09/01 03:35:17;;;;;;;2.27;2.00;;;;;;;16.90;100.00;100013.19;4967425;28;20270;-77
2023/09/01 03:37:43;;;;;;;2.47;2.27;;;;;;;16.94;100.00;100011.31;4979774;28;20633;-77
2023/09/01 03:40:09;;;;;;;5.07;2.63;;;;;;;16.93;100.00;100007.00;4966138;28;20201;-77
2023/09/01 03:42:38;;;;;;;2.90;2.30;;;;;;;16.97;100.00;100007.75;4966571;28;20196;-76
2023/09/01 03:45:04;;;;;;;2.50;2.30;;;;;;;16.98;100.00;100012.94;4962744;28;20190;-76
2023/09/01 03:47:29;;;;;;;2.07;1.87;;;;;;;17.00;100.00;100005.88;4959191;28;20307;-76
2023/09/01 03:49:55;;;;;;;3.60;2.30;;;;;;;17.02;100.00;100003.19;4967090;28;20216;-76
2023/09/01 03:52:20;;;;;;;2.90;2.10;;;;;;;17.03;100.00;100002.28;4966529;28;20213;-76
2023/09/01 03:54:46;;;;;;;2.20;2.00;;;;;;;17.05;100.00;99998.69;4964201;28;20186;-77
2023/09/01 03:57:11;;;;;;;3.43;1.97;;;;;;;17.06;100.00;100005.63;4965307;28;20197;-76
2023/09/01 03:59:36;;;;;;;2.73;1.73;;;;;;;17.08;100.00;100000.34;4964017;28;20199;-77
2023/09/01 04:02:02;;;;;;;2.40;2.03;;;;;;;17.10;100.00;99998.50;4966639;28;20193;-76
2023/09/01 04:04:27;;;;;;;2.10;1.80;;;;;;;17.13;100.00;99998.38;4966622;28;20231;-76
2023/09/01 04:06:53;;;;;;;2.43;2.23;;;;;;;17.15;100.00;100001.78;4967800;28;20288;-77
2023/09/01 04:09:19;;;;;;;3.27;2.00;;;;;;;17.18;100.00;100000.78;4969416;28;21123;-76
2023/09/01 04:11:44;;;;;;;2.60;1.87;;;;;;;17.19;100.00;99998.13;4974631;28;20195;-77
2023/09/01 04:14:11;;;;;;;1.90;1.80;;;;;;;17.22;100.00;100005.00;4973051;28;20189;-76
2023/09/01 04:16:37;;;;;;;1.80;1.50;;;;;;;17.23;100.00;100011.91;4967477;28;20619;-76
2023/09/01 04:19:03;;;;;;;2.10;1.90;;;;;;;17.26;100.00;100005.69;4967365;28;20674;-77
2023/09/01 04:21:28;;;;;;;2.00;1.70;;;;;;;17.27;100.00;100013.50;4969557;28;20285;-76
2023/09/01 04:23:54;;;;;;;1.97;1.80;;;;;;;17.29;100.00;100010.81;4966970;28;20705;-76
2023/09/01 04:26:22;;;;;;;1.70;1.60;;;;;;;17.31;100.00;100015.09;4985637;28;20747;-77
2023/09/01 04:28:47;;;;;;;2.03;1.83;;;;;;;17.32;100.00;100018.53;4967535;28;20272;-77
2023/09/01 04:31:15;;;;;;;1.73;1.50;;;;;;;17.34;100.00;100020.16;4967922;28;20201;-76
2023/09/01 04:33:40;;;;;;;2.60;1.70;;;;;;;17.35;100.00;100014.03;4971989;28;20196;-78
2023/09/01 04:36:06;;;;;;;2.07;1.80;;;;;;;17.35;100.00;100015.81;4969336;28;20666;-76
2023/09/01 04:38:32;;;;;;;1.50;1.40;;;;;;;17.36;100.00;100023.56;4966441;28;20305;-79
2023/09/01 04:40:58;;;;;;;2.20;1.90;;;;;;;17.37;100.00;100030.50;4971548;28;20202;-75
2023/09/01 04:43:27;;;;;;;6.00;4.60;;;;;;;17.39;100.00;100042.69;4970386;28;20195;-75
2023/09/01 04:45:56;;;;;;;4.70;3.87;;;;;;;17.39;100.00;100046.16;4977841;28;20190;-74
2023/09/01 04:48:22;;;;;;;6.97;6.27;;;;;;;17.37;100.00;100048.81;4975605;28;20290;-75
2023/09/01 04:50:47;;;;;;;6.00;5.50;;;;;;;17.37;100.00;100055.81;4969013;28;20289;-75
2023/09/01 04:53:14;;;;;;;5.03;4.53;;;;;;;17.34;100.00;100055.94;4966762;28;20189;-76
2023/09/01 04:55:39;;;;;;;5.93;4.63;;;;;;;17.28;100.00;100057.06;4969914;28;20191;-77
2023/09/01 04:58:05;;;;;;;8.27;6.87;;;;;;;17.26;100.00;100058.88;4972292;28;20654;-78
2023/09/01 05:00:30;;;;;;;3.23;2.90;;;;;;;17.24;100.00;100071.16;4962527;28;20615;-77
2023/09/01 05:02:55;;;;;;;6.83;5.00;;;;;;;17.20;100.00;100072.19;4969888;28;20197;-77
2023/09/01 05:05:21;;;;;;;4.27;2.53;;;;;;;17.18;100.00;100058.31;4964597;28;20292;-76
2023/09/01 05:07:46;;;;;;;3.30;2.40;;;;;;;17.12;100.00;100067.25;4983715;28;20689;-76
2023/09/01 05:10:12;;;;;;;5.33;3.80;;;;;;;17.10;100.00;100070.84;4962191;28;20220;-77
2023/09/01 05:12:37;;;;;;;3.97;2.67;;;;;;;17.08;100.00;100068.31;4992452;28;20216;-78
2023/09/01 05:15:04;;;;;;;3.83;2.90;;;;;;;17.05;100.00;100073.66;4978919;28;20240;-76
2023/09/01 05:17:29;;;;;;;3.90;3.00;;;;;;;17.03;100.00;100068.47;4964151;28;20192;-77
2023/09/01 05:19:56;;;;;;;4.27;2.43;;;;;;;17.01;100.00;100065.09;4961988;28;20221;-77
2023/09/01 05:22:21;;;;;;;4.07;2.57;;;;;;;17.02;100.00;100071.16;4959119;28;20722;-77
2023/09/01 05:24:49;;;;;;;4.93;3.13;;;;;;;17.00;100.00;100072.97;4967033;28;20344;-77
2023/09/01 05:27:19;;;;;;;4.40;3.57;;;;;;;17.00;100.00;100075.59;4964158;28;20202;-77
2023/09/01 05:29:44;;;;;;;6.17;4.53;;;;;;;16.98;100.00;100075.66;4963098;28;20222;-77
2023/09/01 05:32:09;;;;;;;13.77;8.50;;;;;;;16.98;100.00;100080.91;4984040;28;20195;-76
2023/09/01 05:34:35;;;;;;;3.23;2.90;;;;;;;17.00;100.00;100080.81;4972437;28;20674;-76
2023/09/01 05:37:00;;;;;;;5.17;2.73;;;;;;;17.01;100.00;100082.53;4965010;28;20186;-77
2023/09/01 05:39:25;;;;;;;3.17;2.13;;;;;;;16.99;100.00;100079.13;4965506;28;20208;-77
2023/09/01 05:41:51;;;;;;;2.83;1.80;;;;;;;16.98;100.00;100069.56;4969384;28;20193;-77
2023/09/01 05:44:16;;;;;;;3.27;1.80;;;;;;;16.98;100.00;100067.81;4967314;28;20190;-77
2023/09/01 05:46:41;;;;;;;2.40;1.87;;;;;;;16.97;100.00;100073.97;4966849;28;20179;-77
2023/09/01 05:49:07;;;;;;;2.40;1.67;;;;;;;16.99;100.00;100066.91;4982995;28;20678;-76
2023/09/01 05:51:32;;;;;;;2.73;2.17;;;;;;;17.00;100.00;100071.22;4971043;28;20228;-78
2023/09/01 05:53:57;;;;;;;1.90;1.80;;;;;;;17.04;100.00;100080.63;4968856;28;20714;-77
2023/09/01 05:56:22;;;;;;;1.83;1.73;;;;;;;17.08;100.00;100086.63;4980698;28;20187;-77
2023/09/01 05:58:48;;;;;;;2.47;2.10;;;;;;;17.12;100.00;100088.19;4960125;28;20204;-77
2023/09/01 06:01:13;;;;;;;2.40;1.90;;;;;;;17.15;100.00;100082.84;4975145;28;20199;-77
2023/09/01 06:03:39;;;;;;;2.47;1.67;;;;;;;17.21;100.00;100090.44;4962469;28;20195;-78
2023/09/01 06:06:06;;;;;;;2.90;1.90;;;;;;;17.22;100.00;100096.50;4968532;28;20625;-77
2023/09/01 06:08:32;;;;;;;2.53;1.90;;;;;;;17.23;100.00;100084.31;4969705;28;20264;-77
2023/09/01 06:11:08;;;;;;;2.30;2.00;;;;;;;17.27;100.00;100093.72;4968522;28;20212;-77
2023/09/01 06:13:36;;;;;;;2.37;1.50;;;;;;;17.30;100.00;100085.75;4964044;28;20253;-76
2023/09/01 06:16:03;;;;;;;2.20;1.60;;;;;;;17.43;100.00;100096.56;4962227;28;20192;-76
2023/09/01 06:18:28;;;;;;;1.90;1.50;;;;;;;17.56;100.00;100092.53;4968764;28;20494;-78
2023/09/01 06:20:54;;;;;;;1.50;1.40;;;;;;;17.64;100.00;100090.44;4962976;28;21057;-77
2023/09/01 06:23:19;;;;;;;1.63;1.40;;;;;;;17.75;100.00;100110.09;4968195;28;20622;-77
2023/09/01 06:25:44;;;;;;;2.20;1.57;;;;;;;17.79;100.00;100103.81;4967789;28;20670;-78
2023/09/01 06:28:10;;;;;;;2.43;1.80;;;;;;;17.81;100.00;100113.31;4973670;28;20209;-78
2023/09/01 06:30:36;;;;;;;2.30;1.63;;;;;;;17.84;100.00;100112.31;4974782;28;20225;-78
2023/09/01 06:33:01;;;;;;;1.97;1.33;;;;;;;17.86;100.00;100109.63;4966254;28;20662;-77
2023/09/01 06:35:26;;;;;;;2.33;1.60;;;;;;;17.89;100.00;100114.75;4966555;28;20193;-78
2023/09/01 06:37:52;;;;;;;2.03;1.23;;;;;;;17.96;100.00;100118.81;4966038;28;20312;-79
2023/09/01 06:40:17;;;;;;;1.60;1.20;;;;;;;18.04;100.00;100110.66;4964934;28;20215;-77
2023/09/01 06:42:42;;;;;;;3.43;1.50;;;;;;;18.08;100.00;100110.47;4968548;28;20200;-78
2023/09/01 06:45:08;;;;;;;2.27;1.40;;;;;;;18.06;100.00;100117.53;4982440;28;20241;-78
2023/09/01 06:47:33;;;;;;;1.30;1.20;;;;;;;18.08;100.00;100107.84;4967588;28;20196;-78
2023/09/01 06:49:59;;;;;;;2.90;1.10;;;;;;;18.10;100.00;100105.16;4960965;28;20217;-78
2023/09/01 06:52:24;;;;;;;1.90;1.03;;;;;;;18.12;100.00;100105.94;4967099;28;20196;-78
2023/09/01 06:54:50;;;;;;;1.47;1.17;;;;;;;18.13;100.00;100094.53;4965900;28;20197;-77
2023/09/01 06:57:15;;;;;;;1.20;1.10;;;;;;;18.17;100.00;100103.09;4968078;28;20259;-78
2023/09/01 06:59:40;;;;;;;2.23;1.10;;;;;;;18.20;100.00;100093.38;4963924;28;20233;-79
2023/09/01 07:02:06;;;;;;;1.17;0.90;;;;;;;18.25;100.00;100106.25;4968647;28;20204;-79
2023/09/01 07:04:31;;;;;;;1.50;1.23;;;;;;;18.30;100.00;100099.06;4972447;28;20182;-79
2023/09/01 07:06:57;;;;;;;2.77;1.17;;;;;;;18.37;100.00;100108.34;4983383;28;20197;-80
2023/09/01 07:09:22;;;;;;;1.30;1.20;;;;;;;18.44;100.00;100106.28;4979604;28;20275;-78
2023/09/01 07:11:47;;;;;;;1.43;1.33;;;;;;;18.48;100.00;100107.88;4979546;28;20197;-78
2023/09/01 07:14:13;;;;;;;1.67;1.13;;;;;;;18.57;100.00;100110.06;4966060;28;20204;-78
2023/09/01 07:16:38;;;;;;;1.40;1.20;;;;;;;18.62;100.00;100094.13;4979895;28;20198;-78
2023/09/01 07:19:04;;;;;;;1.20;1.10;;;;;;;18.73;100.00;100098.88;4971362;28;20917;-79
2023/09/01 07:21:29;;;;;;;1.03;0.97;;;;;;;18.87;100.00;100098.25;4964429;28;20213;-77
2023/09/01 07:23:54;;;;;;;1.17;1.00;;;;;;;18.97;100.00;100091.66;4962251;28;20209;-78
2023/09/01 07:26:19;;;;;;;1.20;0.97;;;;;;;19.02;100.00;100097.56;4954827;28;20209;-77
2023/09/01 07:28:45;;;;;;;1.77;1.23;;;;;;;19.11;100.00;100093.66;4964368;28;20237;-78
2023/09/01 07:31:14;;;;;;;2.03;1.10;;;;;;;19.16;100.00;100098.66;4963557;28;20196;-77
2023/09/01 07:33:42;;;;;;;0.77;0.77;;;;;;;19.26;100.00;100096.47;4966110;28;20190;-77
2023/09/01 07:36:11;;;;;;;3.80;1.07;;;;;;;19.20;100.00;100095.00;4969466;28;20280;-77
2023/09/01 07:38:40;;;;;;;2.07;1.40;;;;;;;19.22;100.00;100097.53;4969833;28;20833;-78
2023/09/01 07:41:07;;;;;;;1.73;1.10;;;;;;;19.28;100.00;100098.06;4963975;28;21082;-78
2023/09/01 07:43:33;;;;;;;1.20;1.00;;;;;;;19.27;100.00;100099.00;4959699;28;20217;-78
2023/09/01 07:46:00;;;;;;;2.23;1.30;;;;;;;19.30;100.00;100101.47;4971183;28;20224;-78
2023/09/01 07:48:25;;;;;;;1.20;1.10;;;;;;;19.32;100.00;100102.25;4957092;28;20220;-78
2023/09/01 07:50:51;;;;;;;2.10;1.20;;;;;;;19.40;100.00;100096.63;4966075;28;20210;-77
2023/09/01 07:53:16;;;;;;;1.63;1.20;;;;;;;19.46;100.00;100098.09;4965706;28;20296;-77
2023/09/01 07:55:41;;;;;;;1.73;1.40;;;;;;;19.54;100.00;100100.34;4977064;28;20251;-77
2023/09/01 07:58:07;;;;;;;1.47;1.10;;;;;;;19.42;100.00;100096.56;4961787;28;20185;-78
2023/09/01 08:00:32;;;;;;;2.37;1.20;;;;;;;19.46;100.00;100098.94;4961263;28;20633;-77
2023/09/01 08:02:57;;;;;;;1.30;1.03;;;;;;;19.50;100.00;100110.16;4965342;28;20248;-76
2023/09/01 08:05:23;;;;;;;1.87;1.03;;;;;;;19.67;100.00;100111.94;4962942;28;20183;-77
2023/09/01 08:07:51;;;;;;;1.53;1.17;;;;;;;19.79;100.00;100105.22;4969050;28;20218;-76
2023/09/01 08:10:16;;;;;;;1.90;1.27;;;;;;;19.92;100.00;100108.09;4966842;28;20627;-77
2023/09/01 08:12:42;;;;;;;2.70;1.53;;;;;;;19.87;100.00;100097.00;4966023;28;20240;-77
2023/09/01 08:15:08;;;;;;;1.17;1.07;;;;;;;19.94;100.00;100103.63;4967749;28;20205;-77
2023/09/01 08:17:34;;;;;;;1.57;1.10;;;;;;;20.14;100.00;100105.22;4965010;28;20284;-77
2023/09/01 08:19:59;;;;;;;2.37;1.33;;;;;;;20.30;100.00;100112.31;4964176;28;20229;-77
2023/09/01 08:22:25;;;;;;;1.40;0.97;;;;;;;20.38;100.00;100110.97;4967610;28;20186;-77
2023/09/01 08:24:50;;;;;;;2.13;0.97;;;;;;;20.59;100.00;100116.03;4983313;28;20321;-77
2023/09/01 08:27:15;;;;;;;2.07;1.33;;;;;;;20.69;100.00;100114.59;4965024;28;20208;-78
2023/09/01 08:29:41;;;;;;;4.30;1.33;;;;;;;21.04;100.00;100118.03;4965045;28;20662;-77
2023/09/01 08:32:07;;;;;;;1.20;1.00;;;;;;;21.24;100.00;100116.91;4964891;28;20185;-79
2023/09/01 08:34:33;;;;;;;1.40;1.20;;;;;;;21.43;100.00;100124.59;4964235;28;20186;-77
2023/09/01 08:36:58;;;;;;;1.17;0.90;;;;;;;21.50;100.00;100120.69;4966421;28;20244;-78
2023/09/01 08:39:23;;;;;;;1.20;1.00;;;;;;;21.53;100.00;100119.66;4965762;28;20213;-77
2023/09/01 08:41:52;;;;;;;1.03;0.93;;;;;;;21.70;100.00;100118.75;4962689;28;20190;-78
2023/09/01 08:44:23;;;;;;;0.90;0.80;;;;;;;21.83;100.00;100124.97;4967182;28;20182;-78
2023/09/01 08:46:51;;;;;;;2.07;1.37;;;;;;;21.79;100.00;100120.81;4969537;28;20194;-77
2023/09/01 08:49:17;;;;;;;2.33;2.07;;;;;;;22.00;100.00;100121.34;4967761;28;20273;-77
2023/09/01 08:51:45;;;;;;;1.63;1.10;;;;;;;22.14;100.00;100128.44;4962946;28;20190;-77
2023/09/01 08:54:11;;;;;;;1.03;0.90;;;;;;;22.20;100.00;100130.69;4964557;28;20190;-78
2023/09/01 08:56:36;;;;;;;1.03;0.80;;;;;;;22.24;100.00;100133.97;4973986;28;20196;-77
2023/09/01 08:59:02;;;;;;;1.47;0.73;;;;;;;22.28;100.00;100137.28;4976144;28;20276;-76
2023/09/01 09:01:27;;;;;;;1.23;0.70;;;;;;;22.20;100.00;100135.13;4975076;28;20218;-78
2023/09/01 09:03:53;;;;;;;1.40;0.73;;;;;;;21.97;100.00;100139.13;4980715;28;20647;-77
2023/09/01 09:06:31;;;;;;;1.53;0.80;;;;;;;22.04;100.00;100127.25;4981528;28;20753;-76
2023/09/01 09:09:15;;;;;;;1.33;0.70;;;;;;;21.99;100.00;100137.25;4962965;28;20714;-77
2023/09/01 09:11:56;;;;;;;1.90;0.87;;;;;;;21.72;100.00;100138.78;4972066;28;20178;-78
2023/09/01 09:14:22;;;;;;;1.23;0.90;;;;;;;21.77;100.00;100126.19;4971382;28;20217;-78
2023/09/01 09:16:55;;;;;;;1.73;1.07;;;;;;;21.96;100.00;100133.00;4972346;28;20189;-76
2023/09/01 09:19:22;;;;;;;0.90;0.90;;;;;;;22.15;100.00;100137.16;4964824;28;20202;-78
2023/09/01 09:21:47;;;;;;;1.70;1.07;;;;;;;21.94;100.00;100129.59;4970036;28;20661;-77
2023/09/01 09:24:13;;;;;;;2.57;0.90;;;;;;;22.02;100.00;100127.38;4964119;28;20190;-77
2023/09/01 09:26:38;;;;;;;1.80;1.20;;;;;;;22.07;100.00;100127.09;4964157;28;20261;-76
2023/09/01 09:29:11;;;;;;;1.20;0.97;;;;;;;22.12;100.00;100129.44;4968342;28;20213;-79
2023/09/01 09:31:39;;;;;;;4.13;1.40;;;;;;;22.16;100.00;100128.31;4969922;28;20608;-78
2023/09/01 09:34:15;;;;;;;2.83;1.30;;;;;;;22.35;100.00;100128.91;4963610;28;20270;-77
2023/09/01 09:36:40;;;;;;;3.27;1.53;;;;;;;22.36;100.00;100130.63;4971031;28;20185;-78
2023/09/01 09:39:23;;;;;;;1.77;1.07;;;;;;;22.42;100.00;100133.84;4968052;28;20206;-79
2023/09/01 09:41:49;;;;;;;1.73;1.33;;;;;;;22.76;100.00;100127.34;4961997;28;20191;-79
2023/09/01 09:44:35;;;;;;;2.13;1.23;;;;;;;22.97;100.00;100124.25;4970399;28;20190;-77
2023/09/01 09:47:09;;;;;;;1.60;1.20;;;;;;;22.84;100.00;100127.69;4965042;28;20194;-77
2023/09/01 09:49:35;;;;;;;2.73;1.40;;;;;;;23.02;100.00;100118.69;4962298;28;20221;-77
2023/09/01 09:52:02;;;;;;;1.57;1.10;;;;;;;22.93;100.00;100130.69;4968092;28;20214;-77
2023/09/01 09:54:29;;;;;;;2.03;1.10;;;;;;;23.03;100.00;100123.03;4959525;28;20189;-77
2023/09/01 09:56:57;;;;;;;1.87;1.13;;;;;;;23.01;100.00;100125.78;4959961;28;20261;-78
2023/09/01 09:59:29;;;;;;;4.63;2.37;;;;;;;23.18;100.00;100129.97;4964728;28;20262;-77
2023/09/01 10:01:55;;;;;;;1.93;1.23;;;;;;;23.33;100.00;100130.81;4976345;28;20194;-78
2023/09/01 10:04:21;;;;;;;2.50;1.10;;;;;;;23.54;100.00;100127.69;4966197;28;20698;-78
2023/09/01 10:06:46;;;;;;;1.93;1.40;;;;;;;23.35;100.00;100128.91;4965931;28;20286;-79
2023/09/01 10:09:16;;;;;;;2.10;1.20;;;;;;;23.58;100.00;100129.19;4962525;28;20214;-78
2023/09/01 10:11:44;;;;;;;2.17;1.60;;;;;;;23.57;100.00;100125.72;4973258;28;20220;-78
2023/09/01 10:14:13;;;;;;;2.13;1.30;;;;;;;23.51;100.00;100114.72;4970185;28;20235;-78
2023/09/01 10:16:39;;;;;;;1.40;1.20;;;;;;;23.77;100.00;100120.88;4971207;28;20240;-78
2023/09/01 10:19:05;;;;;;;1.47;1.20;;;;;;;23.99;100.00;100112.38;4969627;28;20428;-78
2023/09/01 10:21:30;;;;;;;1.90;1.20;;;;;;;24.04;99.17;100120.00;4959372;28;20186;-79
2023/09/01 10:23:56;;;;;;;2.07;1.40;;;;;;;24.16;98.66;100116.50;4971374;28;20193;-77
2023/09/01 10:26:28;;;;;;;3.43;1.33;;;;;;;24.01;98.13;100115.75;4963615;28;20178;-78
2023/09/01 10:29:04;;;;;;;2.70;1.50;;;;;;;24.25;97.51;100114.16;4964165;28;20218;-78
2023/09/01 10:31:33;;;;;;;1.90;1.50;;;;;;;24.48;96.57;100115.22;4959607;28;20549;-78
2023/09/01 10:34:12;;;;;;;1.80;1.50;;;;;;;24.53;94.83;100115.75;4962105;28;20240;-78
2023/09/01 10:36:39;;;;;;;1.20;1.10;;;;;;;24.67;95.27;100114.75;4961595;28;20240;-78
2023/09/01 10:39:18;;;;;;;1.87;1.30;;;;;;;24.70;94.83;100113.72;4957523;28;20291;-78
2023/09/01 10:41:49;;;;;;;1.87;1.60;;;;;;;24.37;95.64;100120.41;4963208;28;20197;-77
2023/09/01 10:44:15;;;;;;;1.60;1.50;;;;;;;24.61;95.64;100118.69;4967584;28;20221;-77
2023/09/01 10:46:40;;;;;;;2.10;1.43;;;;;;;24.90;94.57;100126.38;4964891;28;20754;-77
2023/09/01 10:49:07;;;;;;;1.43;1.27;;;;;;;24.73;94.70;100127.59;4961502;28;20221;-77
2023/09/01 10:51:37;;;;;;;1.40;1.20;;;;;;;24.92;94.15;100121.81;4955875;28;20270;-78
2023/09/01 10:54:38;;;;;;;3.10;1.33;;;;;;;24.47;95.72;100114.38;4967163;28;20575;-77
2023/09/01 10:57:03;;;;;;;1.77;1.20;;;;;;;25.00;93.43;100121.25;4977714;28;20186;-81
2023/09/01 10:59:30;;;;;;;1.53;1.17;;;;;;;25.03;92.61;100131.63;4966036;28;20285;-79
2023/09/01 11:01:56;;;;;;;1.77;1.20;;;;;;;25.04;92.35;100125.38;4969100;28;20704;-76
2023/09/01 11:04:21;;;;;;;2.60;1.50;;;;;;;24.99;92.53;100116.09;4962928;28;20181;-77
2023/09/01 11:07:06;;;;;;;1.70;1.40;;;;;;;24.72;92.54;100125.06;4954146;28;20648;-78
2023/09/01 11:09:32;;;;;;;2.37;1.40;;;;;;;24.40;95.02;100128.13;4960037;28;20705;-77
2023/09/01 11:11:58;;;;;;;3.03;1.30;;;;;;;24.43;95.10;100131.41;4966938;28;20240;-77
2023/09/01 11:14:23;;;;;;;2.73;1.87;;;;;;;24.62;95.81;100124.84;4963442;28;20273;-76
2023/09/01 11:16:48;;;;;;;2.10;1.63;;;;;;;24.86;95.11;100132.00;4966925;28;20197;-77
2023/09/01 11:19:14;;;;;;;3.20;1.50;;;;;;;24.68;94.22;100128.84;4967614;28;20209;-77